createdAt,value
2023-04-05T00:02:24.009Z,99580.48
2023-04-05T00:04:51.496Z,99575.88
2023-04-05T00:07:18.427Z,99578.49
2023-04-05T00:09:44.677Z,99573.55
2023-04-05T00:12:11.427Z,99575.62
2023-04-05T00:14:37.884Z,99579.06
2023-04-05T00:17:04.458Z,99576.59
2023-04-05T00:19:33.245Z,99579.06
2023-04-05T00:21:59.844Z,99578.80
2023-04-05T00:24:28.789Z,99582.88
2023-04-05T00:26:56.168Z,99579.13
2023-04-05T00:29:22.432Z,99576.31
2023-04-05T00:31:48.890Z,99572.19
2023-04-05T00:34:15.269Z,99570.80
2023-04-05T00:36:43.756Z,99569.66
2023-04-05T00:39:10.140Z,99563.45
2023-04-05T00:41:36.481Z,99555.43
2023-04-05T00:44:03.302Z,99559.82
2023-04-05T00:46:34.281Z,99563.52
2023-04-05T00:49:00.847Z,99560.92
2023-04-05T00:51:27.080Z,99565.38
2023-04-05T00:53:54.505Z,99564.48
2023-04-05T00:56:21.178Z,99570.36
2023-04-05T00:58:51.197Z,99568.39
2023-04-05T01:01:21.672Z,99564.42
2023-04-05T01:04:06.703Z,99560.93
2023-04-05T01:06:34.075Z,99564.98
2023-04-05T01:09:05.867Z,99560.06
2023-04-05T01:11:32.793Z,99562.27
2023-04-05T01:13:59.839Z,99557.91
2023-04-05T01:16:26.673Z,99552.92
2023-04-05T01:18:57.976Z,99544.99
2023-04-05T01:21:33.670Z,99548.41
2023-04-05T01:24:26.298Z,99544.25
2023-04-05T01:27:01.656Z,99546.91
2023-04-05T01:29:31.513Z,99535.98
2023-04-05T01:32:16.647Z,99541.01
2023-04-05T01:34:47.948Z,99538.21
2023-04-05T01:37:15.709Z,99537.95
2023-04-05T01:39:42.489Z,99530.90
2023-04-05T01:42:08.679Z,99530.59
2023-04-05T01:44:36.103Z,99524.17
2023-04-05T01:47:02.427Z,99520.98
2023-04-05T01:49:28.756Z,99513.64
2023-04-05T01:51:55.684Z,99512.98
2023-04-05T01:54:21.996Z,99509.77
2023-04-05T01:56:48.435Z,99509.82
2023-04-05T01:59:14.776Z,99502.71
2023-04-05T02:01:41.294Z,99502.45
2023-04-05T02:04:08.334Z,99502.13
2023-04-05T02:06:41.210Z,99499.95
2023-04-05T02:09:08.797Z,99492.11
2023-04-05T02:11:35.232Z,99496.00
2023-04-05T02:14:06.930Z,99491.70
2023-04-05T02:16:33.664Z,99491.14
2023-04-05T02:19:00.125Z,99491.45
2023-04-05T02:21:31.298Z,99493.03
2023-04-05T02:23:57.488Z,99495.44
2023-04-05T02:26:23.968Z,99497.80
2023-04-05T02:28:50.355Z,99495.06
2023-04-05T02:31:16.861Z,99498.77
2023-04-05T02:33:43.221Z,99501.23
2023-04-05T02:36:11.112Z,99497.80
2023-04-05T02:38:37.675Z,99496.63
2023-04-05T02:41:04.132Z,99498.48
2023-04-05T02:43:30.481Z,99498.20
2023-04-05T02:45:56.940Z,99506.64
2023-04-05T02:48:24.245Z,99499.61
2023-04-05T02:50:51.445Z,99506.23
2023-04-05T02:53:18.239Z,99507.02
2023-04-05T02:55:54.371Z,99510.03
2023-04-05T02:58:23.464Z,99506.70
2023-04-05T03:00:55.615Z,99509.29
2023-04-05T03:03:30.062Z,99517.60
2023-04-05T03:05:59.879Z,99527.47
2023-04-05T03:08:28.146Z,99534.29
2023-04-05T03:11:01.132Z,99539.52
2023-04-05T03:13:29.187Z,99541.54
2023-04-05T03:15:56.258Z,99544.42
2023-04-05T03:18:25.252Z,99541.76
2023-04-05T03:20:58.234Z,99548.48
2023-04-05T03:23:30.165Z,99550.50
2023-04-05T03:26:00.121Z,99553.95
2023-04-05T03:28:27.253Z,99551.83
2023-04-05T03:30:55.624Z,99547.16
2023-04-05T03:33:21.991Z,99550.09
2023-04-05T03:35:50.395Z,99559.06
2023-04-05T03:38:17.217Z,99562.00
2023-04-05T03:40:52.133Z,99559.63
2023-04-05T03:43:20.383Z,99559.01
2023-04-05T03:45:46.766Z,99562.70
2023-04-05T03:48:13.959Z,99557.35
2023-04-05T03:50:41.368Z,99553.07
2023-04-05T03:53:12.010Z,99551.57
2023-04-05T03:55:39.711Z,99552.59
2023-04-05T03:58:06.358Z,99559.90
2023-04-05T04:00:37.029Z,99559.62
2023-04-05T04:03:15.497Z,99556.48
2023-04-05T04:05:47.422Z,99553.80
2023-04-05T04:08:15.775Z,99551.61
2023-04-05T04:10:41.970Z,99558.05
2023-04-05T04:13:19.122Z,99550.50
2023-04-05T04:15:50.094Z,99549.14
2023-04-05T04:18:37.034Z,99541.87
2023-04-05T04:21:24.195Z,99539.48
2023-04-05T04:24:01.933Z,99541.09
2023-04-05T04:26:53.953Z,99538.77
2023-04-05T04:29:46.079Z,99537.36
2023-04-05T04:32:26.173Z,99535.45
2023-04-05T04:35:10.331Z,99529.27
2023-04-05T04:37:59.291Z,99524.38
2023-04-05T04:40:50.233Z,99522.21
2023-04-05T04:43:36.697Z,99522.98
2023-04-05T04:46:42.096Z,99517.70
2023-04-05T04:49:29.669Z,99518.10
2023-04-05T04:51:58.872Z,99519.23
2023-04-05T04:54:25.502Z,99524.38
2023-04-05T04:56:52.204Z,99527.73
2023-04-05T04:59:18.538Z,99527.85
2023-04-05T05:01:45.719Z,99529.06
2023-04-05T05:04:12.454Z,99521.94
2023-04-05T05:06:40.961Z,99526.52
2023-04-05T05:09:07.458Z,99532.00
2023-04-05T05:11:38.931Z,99529.83
2023-04-05T05:14:07.535Z,99531.39
2023-04-05T05:16:34.007Z,99533.13
2023-04-05T05:19:04.311Z,99526.05
2023-04-05T05:21:39.773Z,99524.82
2023-04-05T05:24:09.389Z,99522.44
2023-04-05T05:26:37.496Z,99522.34
2023-04-05T05:29:03.786Z,99516.33
2023-04-05T05:31:33.667Z,99514.65
2023-04-05T05:34:00.039Z,99513.75
2023-04-05T05:36:27.721Z,99512.58
2023-04-05T05:38:54.122Z,99506.60
2023-04-05T05:41:21.707Z,99502.73
2023-04-05T05:43:48.138Z,99504.35
2023-04-05T05:46:14.483Z,99505.63
2023-04-05T05:48:42.190Z,99498.19
2023-04-05T05:51:11.066Z,99496.20
2023-04-05T05:53:38.202Z,99491.14
2023-04-05T05:56:05.316Z,99486.92
2023-04-05T05:58:32.077Z,99485.52
2023-04-05T06:00:58.511Z,99484.88
2023-04-05T06:03:25.806Z,99482.41
2023-04-05T06:05:52.885Z,99482.52
2023-04-05T06:08:19.314Z,99481.77
2023-04-05T06:10:45.542Z,99482.88
2023-04-05T06:13:11.972Z,99477.33
2023-04-05T06:15:38.302Z,99478.48
2023-04-05T06:18:06.885Z,99476.77
2023-04-05T06:20:33.540Z,99479.42
2023-04-05T06:23:01.338Z,99469.66
2023-04-05T06:25:28.169Z,99468.70
2023-04-05T06:27:54.396Z,99471.11
2023-04-05T06:30:20.908Z,99472.70
2023-04-05T06:32:49.825Z,99469.35
2023-04-05T06:35:16.384Z,99468.39
2023-04-05T06:37:44.656Z,99458.81
2023-04-05T06:40:11.123Z,99463.52
2023-04-05T06:42:38.013Z,99464.63
2023-04-05T06:45:05.694Z,99459.18
2023-04-05T06:47:35.638Z,99459.20
2023-04-05T06:50:02.868Z,99452.80
2023-04-05T06:52:29.387Z,99451.05
2023-04-05T06:54:56.077Z,99456.60
2023-04-05T06:59:44.149Z,99451.38
2023-04-05T07:02:11.589Z,99448.13
2023-04-05T07:04:39.632Z,99449.59
2023-04-05T07:07:07.328Z,99448.44
2023-04-05T07:09:34.783Z,99448.83
2023-04-05T07:12:06.185Z,99448.32
2023-04-05T07:14:34.189Z,99447.12
2023-04-05T07:17:01.648Z,99445.25
2023-04-05T07:19:28.798Z,99444.13
2023-04-05T07:21:56.311Z,99436.48
2023-04-05T07:24:23.406Z,99442.35
2023-04-05T07:26:50.969Z,99435.13
2023-04-05T07:29:24.180Z,99437.54
2023-04-05T07:31:51.474Z,99439.52
2023-04-05T07:34:18.866Z,99433.55
2023-04-05T07:36:47.343Z,99434.98
2023-04-05T07:39:14.653Z,99432.83
2023-04-05T07:41:43.102Z,99426.87
2023-04-05T07:44:14.018Z,99425.58
2023-04-05T07:46:47.552Z,99422.66
2023-04-05T07:49:15.785Z,99416.31
2023-04-05T07:51:43.670Z,99413.27
2023-04-05T07:54:10.912Z,99418.53
2023-04-05T07:56:39.717Z,99420.04
2023-04-05T07:59:07.040Z,99415.55
2023-04-05T08:01:34.400Z,99413.69
2023-04-05T08:04:01.679Z,99408.36
2023-04-05T08:06:29.192Z,99414.02
2023-04-05T08:08:56.288Z,99410.30
2023-04-05T08:11:23.290Z,99413.63
2023-04-05T08:13:50.785Z,99410.33
2023-04-05T08:16:18.225Z,99411.39
2023-04-05T08:18:47.836Z,99412.75
2023-04-05T08:21:15.056Z,99407.27
2023-04-05T08:23:42.863Z,99416.65
2023-04-05T08:26:10.153Z,99410.48
2023-04-05T08:28:37.251Z,99410.15
2023-04-05T08:31:04.537Z,99413.86
2023-04-05T08:33:35.092Z,99410.08
2023-04-05T08:36:06.540Z,99413.11
2023-04-05T08:38:33.543Z,99409.15
2023-04-05T08:41:08.461Z,99404.44
2023-04-05T08:43:46.081Z,99403.86
2023-04-05T08:46:15.211Z,99394.96
2023-04-05T08:48:42.854Z,99393.77
2023-04-05T08:51:10.012Z,99392.49
2023-04-05T08:53:37.149Z,99384.17
2023-04-05T08:56:04.528Z,99377.02
2023-04-05T08:58:34.252Z,99381.08
2023-04-05T09:01:01.682Z,99380.92
2023-04-05T09:03:40.524Z,99389.40
2023-04-05T09:06:08.705Z,99390.22
2023-04-05T09:08:35.716Z,99385.04
2023-04-05T09:11:03.422Z,99369.86
2023-04-05T09:13:31.624Z,99366.69
2023-04-05T09:16:01.327Z,99369.92
2023-04-05T09:18:30.150Z,99364.40
2023-04-05T09:21:03.871Z,99372.98
2023-04-05T09:23:37.501Z,99373.31
2023-04-05T09:26:21.846Z,99370.05
2023-04-05T09:28:51.987Z,99379.67
2023-04-05T09:31:35.996Z,99377.60
2023-04-05T09:34:09.166Z,99380.29
2023-04-05T09:36:43.934Z,99374.68
2023-04-05T09:39:11.221Z,99381.77
2023-04-05T09:41:39.484Z,99376.14
2023-04-05T09:44:06.494Z,99383.45
2023-04-05T09:46:37.984Z,99372.86
2023-04-05T09:49:08.012Z,99355.27
2023-04-05T09:51:36.469Z,99359.76
2023-04-05T09:54:09.634Z,99364.73
2023-04-05T09:56:38.615Z,99352.30
2023-04-05T09:59:12.719Z,99346.42
2023-04-05T10:01:43.905Z,99340.13
2023-04-05T10:04:11.770Z,99338.10
2023-04-05T10:06:40.201Z,99342.38
2023-04-05T10:09:09.746Z,99343.02
2023-04-05T10:11:37.633Z,99338.46
2023-04-05T10:14:07.105Z,99350.98
2023-04-05T10:16:50.831Z,99350.66
2023-04-05T10:19:26.097Z,99350.74
2023-04-05T10:21:54.414Z,99343.85
2023-04-05T10:24:27.441Z,99351.17
2023-04-05T10:27:06.571Z,99354.62
2023-04-05T10:29:47.087Z,99357.84
2023-04-05T10:32:17.395Z,99351.08
2023-04-05T10:34:49.266Z,99347.20
2023-04-05T10:37:36.635Z,99351.20
2023-04-05T10:40:04.388Z,99348.73
2023-04-05T10:42:41.042Z,99344.63
2023-04-05T10:45:15.552Z,99341.64
2023-04-05T10:47:49.471Z,99358.23
2023-04-05T10:50:25.572Z,99350.41
2023-04-05T10:52:53.745Z,99352.02
2023-04-05T10:55:21.845Z,99353.17
2023-04-05T10:57:49.285Z,99359.76
2023-04-05T11:00:16.996Z,99364.92
2023-04-05T11:02:50.238Z,99364.79
2023-04-05T11:05:31.689Z,99369.76
2023-04-05T11:08:08.219Z,99370.17
2023-04-05T11:10:36.647Z,99366.06
2023-04-05T11:13:08.873Z,99368.40
2023-04-05T11:15:36.302Z,99367.08
2023-04-05T11:18:08.766Z,99370.27
2023-04-05T11:20:47.140Z,99374.39
2023-04-05T11:23:15.881Z,99368.67
2023-04-05T11:25:48.074Z,99370.79
2023-04-05T11:28:32.026Z,99370.25
2023-04-05T11:31:13.088Z,99359.17
2023-04-05T11:34:00.270Z,99358.91
2023-04-05T11:36:46.155Z,99355.48
2023-04-05T11:39:23.236Z,99354.45
2023-04-05T11:42:02.134Z,99350.45
2023-04-05T11:44:32.087Z,99346.23
2023-04-05T11:46:59.986Z,99347.58
2023-04-05T11:49:27.014Z,99337.39
2023-04-05T11:51:54.671Z,99348.02
2023-04-05T11:54:34.113Z,99333.42
2023-04-05T11:57:02.519Z,99338.53
2023-04-05T11:59:34.007Z,99334.48
2023-04-05T12:02:03.791Z,99329.85
2023-04-05T12:04:31.273Z,99327.27
2023-04-05T12:07:17.916Z,99329.39
2023-04-05T12:10:10.993Z,99329.23
2023-04-05T12:12:40.292Z,99316.58
2023-04-05T12:15:08.803Z,99323.64
2023-04-05T12:17:42.748Z,99313.08
2023-04-05T12:20:10.996Z,99310.23
2023-04-05T12:22:38.311Z,99318.25
2023-04-05T12:25:06.455Z,99300.26
2023-04-05T12:27:33.537Z,99305.23
2023-04-05T12:30:36.774Z,99306.98
2023-04-05T12:33:08.525Z,99299.02
2023-04-05T12:35:35.951Z,99298.20
2023-04-05T12:38:05.632Z,99297.58
2023-04-05T12:40:34.231Z,99292.21
2023-04-05T12:43:08.591Z,99289.02
2023-04-05T12:45:43.156Z,99284.67
2023-04-05T12:48:14.476Z,99281.23
2023-04-05T12:50:48.714Z,99284.71
2023-04-05T12:53:23.052Z,99277.43
2023-04-05T12:55:54.710Z,99276.40
2023-04-05T12:58:23.684Z,99277.73
2023-04-05T13:00:50.896Z,99275.55
2023-04-05T13:03:21.005Z,99269.76
2023-04-05T13:05:49.424Z,99275.61
2023-04-05T13:08:20.654Z,99279.56
2023-04-05T13:10:48.374Z,99275.87
2023-04-05T13:13:15.928Z,99273.55
2023-04-05T13:15:46.167Z,99276.34
2023-04-05T13:18:15.051Z,99278.74
2023-04-05T13:20:47.663Z,99270.23
2023-04-05T13:23:15.806Z,99271.23
2023-04-05T13:25:45.384Z,99277.90
2023-04-05T13:28:12.459Z,99282.33
2023-04-05T13:30:39.660Z,99280.21
2023-04-05T13:33:07.121Z,99284.08
2023-04-05T13:35:34.457Z,99274.77
2023-04-05T13:38:04.324Z,99280.88
2023-04-05T13:40:32.741Z,99275.60
2023-04-05T13:43:00.040Z,99281.11
2023-04-05T13:45:27.864Z,99272.16
2023-04-05T13:47:55.104Z,99285.27
2023-04-05T13:50:22.137Z,99274.66
2023-04-05T13:52:49.630Z,99281.65
2023-04-05T13:55:16.874Z,99273.02
2023-04-05T13:57:45.540Z,99271.02
2023-04-05T14:00:13.603Z,99271.84
2023-04-05T14:02:44.359Z,99272.63
2023-04-05T14:05:11.516Z,99272.63
2023-04-05T14:07:38.890Z,99271.84
2023-04-05T14:10:06.813Z,99269.73
2023-04-05T14:12:34.540Z,99267.20
2023-04-05T14:15:01.527Z,99262.31
2023-04-05T14:17:29.879Z,99270.59
2023-04-05T14:19:58.510Z,99264.80
2023-04-05T14:22:26.285Z,99265.84
2023-04-05T14:24:53.325Z,99268.56
2023-04-05T14:27:26.764Z,99265.63
2023-04-05T14:29:57.277Z,99268.52
2023-04-05T14:32:25.619Z,99266.02
2023-04-05T14:34:53.815Z,99262.27
2023-04-05T14:37:21.147Z,99262.23
2023-04-05T14:39:48.290Z,99254.78
2023-04-05T14:42:15.437Z,99265.84
2023-04-05T14:44:42.409Z,99260.28
2023-04-05T14:47:10.029Z,99249.07
2023-04-05T14:49:37.245Z,99255.56
2023-04-05T14:52:04.422Z,99259.67
2023-04-05T14:54:31.713Z,99264.02
2023-04-05T14:56:59.160Z,99263.46
2023-04-05T14:59:26.615Z,99261.34
2023-04-05T15:01:53.587Z,99263.15
2023-04-05T15:04:20.872Z,99260.41
2023-04-05T15:06:48.175Z,99254.41
2023-04-05T15:09:15.972Z,99258.27
2023-04-05T15:11:46.149Z,99252.39
2023-04-05T15:14:21.309Z,99255.83
2023-04-05T15:16:55.864Z,99251.26
2023-04-05T15:19:22.955Z,99254.21
2023-04-05T15:21:50.105Z,99245.23
2023-04-05T15:24:17.321Z,99248.56
2023-04-05T15:26:44.761Z,99251.04
2023-04-05T15:29:12.528Z,99248.11
2023-04-05T15:31:41.577Z,99244.07
2023-04-05T15:34:08.701Z,99248.61
2023-04-05T15:36:37.459Z,99258.46
2023-04-05T15:39:05.360Z,99250.66
2023-04-05T15:41:33.523Z,99254.84
2023-04-05T15:44:02.688Z,99264.34
2023-04-05T15:46:30.436Z,99261.90
2023-04-05T15:48:57.385Z,99266.95
2023-04-05T15:51:24.309Z,99265.02
2023-04-05T15:53:51.770Z,99262.72
2023-04-05T15:56:18.744Z,99262.22
2023-04-05T15:58:46.938Z,99263.33
2023-04-05T16:01:14.889Z,99272.47
2023-04-05T16:03:42.757Z,99273.28
2023-04-05T16:06:09.684Z,99269.38
2023-04-05T16:08:38.310Z,99269.27
2023-04-05T16:11:08.458Z,99270.27
2023-04-05T16:13:39.727Z,99272.20
2023-04-05T16:16:06.828Z,99266.76
2023-04-05T16:18:34.473Z,99270.81
2023-04-05T16:21:05.556Z,99264.82
2023-04-05T16:23:33.186Z,99270.63
2023-04-05T16:26:00.215Z,99268.83
2023-04-05T16:28:27.141Z,99274.34
2023-04-05T16:30:55.801Z,99272.74
2023-04-05T16:33:22.996Z,99271.41
2023-04-05T16:35:50.302Z,99268.21
2023-04-05T16:38:17.723Z,99274.08
2023-04-05T16:40:45.398Z,99278.71
2023-04-05T16:43:13.377Z,99277.77
2023-04-05T16:45:40.451Z,99280.21
2023-04-05T16:48:08.875Z,99281.23
2023-04-05T16:50:36.426Z,99289.45
2023-04-05T16:53:03.555Z,99290.82
2023-04-05T16:55:30.858Z,99288.27
2023-04-05T16:57:59.097Z,99282.99
2023-04-05T17:00:27.197Z,99286.98
2023-04-05T17:03:14.360Z,99290.37
2023-04-05T17:05:41.968Z,99291.47
2023-04-05T17:08:09.277Z,99292.23
2023-04-05T17:10:36.860Z,99298.31
2023-04-05T17:13:04.101Z,99301.34
2023-04-05T17:15:31.581Z,99297.27
2023-04-05T17:17:58.870Z,99295.17
2023-04-05T17:20:26.041Z,99301.31
2023-04-05T17:22:53.357Z,99305.66
2023-04-05T17:25:20.534Z,99303.38
2023-04-05T17:27:49.952Z,99311.52
2023-04-05T17:30:17.205Z,99310.63
2023-04-05T17:32:51.904Z,99308.60
2023-04-05T17:35:19.197Z,99309.92
2023-04-05T17:37:47.251Z,99313.44
2023-04-05T17:40:14.538Z,99308.02
2023-04-05T17:42:42.763Z,99309.38
2023-04-05T17:45:10.220Z,99312.83
2023-04-05T17:47:37.841Z,99309.11
2023-04-05T17:50:05.768Z,99306.00
2023-04-05T17:52:33.335Z,99315.06
2023-04-05T17:55:00.327Z,99316.39
2023-04-05T17:57:27.439Z,99309.17
2023-04-05T17:59:54.783Z,99309.45
2023-04-05T18:02:22.146Z,99300.54
2023-04-05T18:04:49.706Z,99311.19
2023-04-05T18:07:16.800Z,99311.51
2023-04-05T18:09:46.621Z,99305.36
2023-04-05T18:12:13.722Z,99314.77
2023-04-05T18:14:40.777Z,99317.73
2023-04-05T18:17:08.057Z,99318.22
2023-04-05T18:19:35.201Z,99320.33
2023-04-05T18:22:02.476Z,99319.19
2023-04-05T18:24:29.719Z,99319.19
2023-04-05T18:26:57.533Z,99330.07
2023-04-05T18:29:29.441Z,99316.00
2023-04-05T18:31:56.966Z,99324.58
2023-04-05T18:34:24.390Z,99316.55
2023-04-05T18:36:52.964Z,99329.61
2023-04-05T18:39:21.008Z,99337.70
2023-04-05T18:41:47.920Z,99334.85
2023-04-05T18:44:14.976Z,99336.05
2023-04-05T18:46:41.973Z,99331.23
2023-04-05T18:49:10.067Z,99332.25
2023-04-05T18:51:38.155Z,99333.31
2023-04-05T18:54:05.418Z,99325.02
2023-04-05T18:56:32.534Z,99327.93
2023-04-05T18:58:59.516Z,99337.08
2023-04-05T19:01:27.045Z,99333.43
2023-04-05T19:03:54.386Z,99326.66
2023-04-05T19:06:21.439Z,99326.98
2023-04-05T19:08:48.637Z,99328.22
2023-04-05T19:11:18.514Z,99330.33
2023-04-05T19:13:45.917Z,99318.32
2023-04-05T19:17:16.252Z,99327.30
2023-04-05T19:19:43.089Z,99325.89
2023-04-05T19:22:10.784Z,99329.66
2023-04-05T19:24:39.695Z,99333.08
2023-04-05T19:27:06.084Z,99331.62
2023-04-05T19:29:33.973Z,99328.67
2023-04-05T19:32:00.375Z,99329.11
2023-04-05T19:34:26.965Z,99325.77
2023-04-05T19:36:53.645Z,99328.17
2023-04-05T19:39:25.363Z,99326.21
2023-04-05T19:41:57.463Z,99323.11
2023-04-05T19:44:54.362Z,99329.43
2023-04-05T19:47:25.988Z,99324.19
2023-04-05T19:49:55.341Z,99330.66
2023-04-05T19:52:36.353Z,99326.52
2023-04-05T19:55:30.761Z,99330.65
2023-04-05T19:58:01.371Z,99320.50
2023-04-05T20:00:32.265Z,99325.02
2023-04-05T20:03:00.547Z,99320.44
2023-04-05T20:05:42.597Z,99331.48
2023-04-05T20:08:09.273Z,99334.05
2023-04-05T20:10:40.710Z,99333.53
2023-04-05T20:13:11.417Z,99334.52
2023-04-05T20:15:38.059Z,99333.25
2023-04-05T20:18:05.719Z,99330.05
2023-04-05T20:20:35.127Z,99329.97
2023-04-05T20:23:06.036Z,99328.76
2023-04-05T20:25:42.147Z,99331.52
2023-04-05T20:28:27.073Z,99338.86
2023-04-05T20:30:53.724Z,99334.13
2023-04-05T20:34:01.681Z,99329.55
2023-04-05T20:36:32.309Z,99331.71
2023-04-05T20:39:00.766Z,99330.22
2023-04-05T20:41:27.668Z,99328.59
2023-04-05T20:43:55.745Z,99330.20
2023-04-05T20:46:22.635Z,99325.29
2023-04-05T20:48:49.360Z,99328.86
2023-04-05T20:51:18.206Z,99324.04
2023-04-05T20:53:44.866Z,99316.70
2023-04-05T20:56:11.999Z,99324.08
2023-04-05T20:58:40.996Z,99321.61
2023-04-05T21:01:07.589Z,99330.77
2023-04-05T21:03:41.355Z,99319.57
2023-04-05T21:06:08.894Z,99321.61
2023-04-05T21:08:36.698Z,99317.72
2023-04-05T21:11:06.108Z,99317.81
2023-04-05T21:13:34.131Z,99321.52
2023-04-05T21:16:00.877Z,99320.46
2023-04-05T21:18:30.194Z,99321.14
2023-04-05T21:20:57.018Z,99314.55
2023-04-05T21:23:27.491Z,99321.19
2023-04-05T21:25:57.591Z,99324.13
2023-04-05T21:28:24.308Z,99310.40
2023-04-05T21:30:52.500Z,99320.04
2023-04-05T21:33:19.530Z,99324.52
2023-04-05T21:35:46.126Z,99319.60
2023-04-05T21:38:15.626Z,99314.84
2023-04-05T21:40:44.146Z,99325.06
2023-04-05T21:43:15.660Z,99321.36
2023-04-05T21:45:43.256Z,99320.12
2023-04-05T21:48:10.167Z,99314.80
2023-04-05T21:50:37.114Z,99322.45
2023-04-05T21:53:06.675Z,99321.02
2023-04-05T21:55:34.768Z,99318.48
2023-04-05T21:58:02.872Z,99322.63
2023-04-05T22:00:29.581Z,99310.65
2023-04-05T22:02:57.911Z,99317.38
2023-04-05T22:05:36.154Z,99320.98
2023-04-05T22:08:05.249Z,99316.42
2023-04-05T22:10:32.216Z,99314.77
2023-04-05T22:12:59.279Z,99316.20
2023-04-05T22:15:25.947Z,99314.13
2023-04-05T22:17:52.530Z,99316.88
2023-04-05T22:20:19.328Z,99320.02
2023-04-05T22:22:47.364Z,99323.15
2023-04-05T22:25:15.986Z,99318.66
2023-04-05T22:27:43.476Z,99324.33
2023-04-05T22:30:11.097Z,99322.70
2023-04-05T22:32:39.415Z,99313.90
2023-04-05T22:35:06.662Z,99320.98
2023-04-05T22:37:36.115Z,99320.90
2023-04-05T22:40:06.803Z,99320.05
2023-04-05T22:42:34.414Z,99318.73
2023-04-05T22:45:02.898Z,99321.45
2023-04-05T22:47:29.489Z,99320.13
2023-04-05T22:49:56.686Z,99324.75
2023-04-05T22:52:23.097Z,99322.80
2023-04-05T22:54:49.495Z,99318.86
2023-04-05T22:57:15.982Z,99320.41
2023-04-05T22:59:42.663Z,99314.34
2023-04-05T23:02:13.461Z,99325.45
2023-04-05T23:04:40.818Z,99321.07
2023-04-05T23:07:07.474Z,99319.30
2023-04-05T23:09:33.873Z,99321.32
2023-04-05T23:12:00.281Z,99321.81
2023-04-05T23:14:27.051Z,99315.08
2023-04-05T23:16:53.515Z,99317.39
2023-04-05T23:19:19.960Z,99319.35
2023-04-05T23:21:46.355Z,99320.45
2023-04-05T23:24:12.990Z,99312.85
2023-04-05T23:26:40.141Z,99320.66
2023-04-05T23:29:07.210Z,99312.66
2023-04-05T23:31:34.434Z,99313.88
2023-04-05T23:34:01.449Z,99319.69
2023-04-05T23:36:30.890Z,99315.63
2023-04-05T23:38:59.588Z,99318.14
2023-04-05T23:41:26.565Z,99310.89
2023-04-05T23:43:53.258Z,99314.04
2023-04-05T23:46:19.838Z,99314.30
2023-04-05T23:48:46.678Z,99313.97
2023-04-05T23:51:13.608Z,99305.85
2023-04-05T23:53:40.017Z,99306.27
2023-04-05T23:56:06.870Z,99308.89
2023-04-05T23:58:33.392Z,99306.46
